createdAt,value
2023-05-13T00:02:36.857Z,100.00
2023-05-13T00:05:40.643Z,100.00
2023-05-13T00:08:43.172Z,100.00
2023-05-13T00:11:46.135Z,100.00
2023-05-13T00:14:48.827Z,100.00
2023-05-13T00:17:51.741Z,100.00
2023-05-13T00:20:54.436Z,100.00
2023-05-13T00:24:00.397Z,100.00
2023-05-13T00:27:03.356Z,100.00
2023-05-13T00:30:06.901Z,100.00
2023-05-13T00:33:09.520Z,100.00
2023-05-13T00:36:12.549Z,100.00
2023-05-13T00:39:15.086Z,100.00
2023-05-13T00:42:18.294Z,100.00
2023-05-13T00:45:21.134Z,100.00
2023-05-13T00:48:24.653Z,100.00
2023-05-13T00:51:27.650Z,100.00
2023-05-13T00:54:30.682Z,100.00
2023-05-13T00:57:33.859Z,100.00
2023-05-13T01:00:44.745Z,100.00
2023-05-13T01:03:50.489Z,100.00
2023-05-13T01:07:18.448Z,100.00
2023-05-13T01:10:47.622Z,100.00
2023-05-13T01:13:56.598Z,100.00
2023-05-13T01:17:06.015Z,100.00
2023-05-13T01:20:09.898Z,100.00
2023-05-13T01:23:13.715Z,100.00
2023-05-13T01:26:16.815Z,100.00
2023-05-13T01:29:19.499Z,100.00
2023-05-13T01:32:23.743Z,100.00
2023-05-13T01:35:29.371Z,100.00
2023-05-13T01:38:35.661Z,100.00
2023-05-13T01:41:38.789Z,100.00
2023-05-13T01:44:43.175Z,100.00
2023-05-13T01:47:45.708Z,100.00
2023-05-13T01:50:49.398Z,100.00
2023-05-13T01:53:51.882Z,100.00
2023-05-13T01:56:54.936Z,100.00
2023-05-13T01:59:57.478Z,100.00
2023-05-13T02:03:00.580Z,100.00
2023-05-13T02:06:03.800Z,100.00
2023-05-13T02:09:06.811Z,100.00
2023-05-13T02:12:13.971Z,100.00
2023-05-13T02:15:16.677Z,100.00
2023-05-13T02:18:19.695Z,100.00
2023-05-13T02:21:22.097Z,100.00
2023-05-13T02:24:25.851Z,100.00
2023-05-13T02:27:28.971Z,100.00
2023-05-13T02:30:31.872Z,100.00
2023-05-13T02:33:34.441Z,100.00
2023-05-13T02:36:37.448Z,100.00
2023-05-13T02:39:40.432Z,100.00
2023-05-13T02:42:44.516Z,100.00
2023-05-13T02:45:47.970Z,100.00
2023-05-13T02:48:51.341Z,100.00
2023-05-13T02:51:55.269Z,100.00
2023-05-13T02:54:59.470Z,100.00
2023-05-13T02:58:02.155Z,100.00
2023-05-13T03:01:05.162Z,100.00
2023-05-13T03:04:07.707Z,100.00
2023-05-13T03:07:11.158Z,100.00
2023-05-13T03:10:13.977Z,100.00
2023-05-13T03:13:16.726Z,100.00
2023-05-13T03:16:19.686Z,100.00
2023-05-13T03:19:22.538Z,100.00
2023-05-13T03:22:25.079Z,100.00
2023-05-13T03:25:28.335Z,100.00
2023-05-13T03:28:31.679Z,100.00
2023-05-13T03:31:34.608Z,100.00
2023-05-13T03:34:38.755Z,100.00
2023-05-13T03:37:45.344Z,100.00
2023-05-13T03:40:48.438Z,100.00
2023-05-13T03:43:51.286Z,100.00
2023-05-13T03:46:54.521Z,100.00
2023-05-13T03:49:57.622Z,100.00
2023-05-13T03:53:00.194Z,100.00
2023-05-13T03:56:04.988Z,100.00
2023-05-13T03:59:07.574Z,100.00
2023-05-13T04:02:11.357Z,100.00
2023-05-13T04:05:14.582Z,100.00
2023-05-13T04:08:17.662Z,100.00
2023-05-13T04:11:20.828Z,100.00
2023-05-13T04:14:23.503Z,100.00
2023-05-13T04:17:26.285Z,100.00
2023-05-13T04:20:29.211Z,100.00
2023-05-13T04:23:31.976Z,100.00
2023-05-13T04:26:34.418Z,100.00
2023-05-13T04:29:37.188Z,100.00
2023-05-13T04:32:40.300Z,100.00
2023-05-13T04:35:43.720Z,100.00
2023-05-13T04:38:46.578Z,100.00
2023-05-13T04:41:55.411Z,100.00
2023-05-13T04:44:58.155Z,100.00
2023-05-13T04:48:01.414Z,100.00
2023-05-13T04:51:03.848Z,100.00
2023-05-13T04:54:07.260Z,100.00
2023-05-13T04:57:09.912Z,100.00
2023-05-13T05:00:13.392Z,100.00
2023-05-13T05:03:16.402Z,100.00
2023-05-13T05:06:19.713Z,100.00
2023-05-13T05:09:22.204Z,100.00
2023-05-13T05:12:26.023Z,100.00
2023-05-13T05:15:29.843Z,100.00
2023-05-13T05:18:35.919Z,100.00
2023-05-13T05:21:40.061Z,100.00
2023-05-13T05:24:44.855Z,100.00
2023-05-13T05:27:47.452Z,100.00
2023-05-13T05:30:51.786Z,100.00
2023-05-13T05:33:56.408Z,100.00
2023-05-13T05:36:59.328Z,100.00
2023-05-13T05:40:02.272Z,100.00
2023-05-13T05:43:07.462Z,100.00
2023-05-13T05:46:11.172Z,100.00
2023-05-13T05:49:14.124Z,100.00
2023-05-13T05:52:16.802Z,100.00
2023-05-13T05:55:20.292Z,100.00
2023-05-13T05:58:22.981Z,100.00
2023-05-13T06:01:27.796Z,100.00
2023-05-13T06:04:30.783Z,100.00
2023-05-13T06:07:33.319Z,100.00
2023-05-13T06:10:38.478Z,100.00
2023-05-13T06:13:41.036Z,100.00
2023-05-13T06:16:44.750Z,100.00
2023-05-13T06:19:47.285Z,100.00
2023-05-13T06:22:50.095Z,100.00
2023-05-13T06:25:53.756Z,100.00
2023-05-13T06:28:56.679Z,100.00
2023-05-13T06:31:59.276Z,100.00
2023-05-13T06:35:02.340Z,100.00
2023-05-13T06:38:05.043Z,100.00
2023-05-13T06:41:08.599Z,100.00
2023-05-13T06:44:11.789Z,100.00
2023-05-13T06:47:16.324Z,100.00
2023-05-13T06:50:19.622Z,100.00
2023-05-13T06:53:22.910Z,100.00
2023-05-13T06:56:25.914Z,100.00
2023-05-13T06:59:30.243Z,100.00
2023-05-13T07:02:33.156Z,100.00
2023-05-13T07:05:36.106Z,100.00
2023-05-13T07:08:38.839Z,100.00
2023-05-13T07:11:41.592Z,100.00
2023-05-13T07:14:45.264Z,100.00
2023-05-13T07:17:48.160Z,100.00
2023-05-13T07:20:51.062Z,100.00
2023-05-13T07:23:53.864Z,100.00
2023-05-13T07:26:56.360Z,100.00
2023-05-13T07:29:59.113Z,100.00
2023-05-13T07:33:01.632Z,100.00
2023-05-13T07:36:06.918Z,100.00
2023-05-13T07:39:09.547Z,100.00
2023-05-13T07:42:12.277Z,100.00
2023-05-13T07:45:14.891Z,100.00
2023-05-13T07:48:18.227Z,100.00
2023-05-13T07:51:20.810Z,100.00
2023-05-13T07:54:23.668Z,100.00
2023-05-13T07:57:26.270Z,100.00
2023-05-13T08:00:29.165Z,100.00
2023-05-13T08:03:32.197Z,100.00
2023-05-13T08:06:34.788Z,100.00
2023-05-13T08:09:37.921Z,100.00
2023-05-13T08:12:43.606Z,100.00
2023-05-13T08:15:46.648Z,100.00
2023-05-13T08:18:49.258Z,100.00
2023-05-13T08:21:52.141Z,100.00
2023-05-13T08:24:54.627Z,100.00
2023-05-13T08:27:57.757Z,100.00
2023-05-13T08:31:02.917Z,100.00
2023-05-13T08:34:05.729Z,100.00
2023-05-13T08:37:08.174Z,100.00
2023-05-13T08:40:11.559Z,100.00
2023-05-13T08:43:16.218Z,100.00
2023-05-13T08:46:19.593Z,100.00
2023-05-13T08:49:22.344Z,100.00
2023-05-13T08:52:26.258Z,100.00
2023-05-13T08:55:29.021Z,100.00
2023-05-13T08:58:32.093Z,100.00
2023-05-13T09:01:34.840Z,100.00
2023-05-13T09:04:41.163Z,100.00
2023-05-13T09:07:43.913Z,100.00
2023-05-13T09:10:46.819Z,100.00
2023-05-13T09:14:00.241Z,100.00
2023-05-13T09:17:03.574Z,100.00
2023-05-13T09:20:11.218Z,100.00
2023-05-13T09:23:15.897Z,100.00
2023-05-13T09:26:29.173Z,100.00
2023-05-13T09:31:33.796Z,100.00
2023-05-13T09:34:37.244Z,100.00
2023-05-13T09:37:39.797Z,100.00
2023-05-13T09:40:56.677Z,100.00
2023-05-13T09:44:02.835Z,100.00
2023-05-13T09:47:05.784Z,100.00
2023-05-13T09:50:10.618Z,100.00
2023-05-13T09:53:13.500Z,100.00
2023-05-13T09:56:22.037Z,100.00
2023-05-13T09:59:24.883Z,100.00
2023-05-13T10:02:28.856Z,100.00
2023-05-13T10:05:33.056Z,100.00
2023-05-13T10:08:36.083Z,100.00
2023-05-13T10:11:39.539Z,100.00
2023-05-13T10:14:43.199Z,97.99
2023-05-13T10:17:47.319Z,96.34
2023-05-13T10:20:53.677Z,100.00
2023-05-13T10:23:57.638Z,98.99
2023-05-13T10:27:01.851Z,100.00
2023-05-13T10:30:09.756Z,98.91
2023-05-13T10:33:12.670Z,100.00
2023-05-13T10:36:42.597Z,97.77
2023-05-13T10:40:23.780Z,98.35
2023-05-13T10:43:31.359Z,100.00
2023-05-13T10:46:34.766Z,99.35
2023-05-13T10:49:40.434Z,99.83
2023-05-13T10:52:46.692Z,100.00
2023-05-13T10:55:54.980Z,96.27
2023-05-13T10:58:59.057Z,99.80
2023-05-13T11:02:03.888Z,100.00
2023-05-13T11:05:06.968Z,100.00
2023-05-13T11:08:09.803Z,100.00
2023-05-13T11:11:21.385Z,100.00
2023-05-13T11:14:26.185Z,100.00
2023-05-13T11:17:31.188Z,100.00
2023-05-13T11:20:51.210Z,100.00
2023-05-13T11:24:00.881Z,100.00
2023-05-13T11:27:22.084Z,100.00
2023-05-13T11:30:27.303Z,100.00
2023-05-13T11:34:09.692Z,100.00
2023-05-13T11:37:12.310Z,100.00
2023-05-13T11:40:28.314Z,100.00
2023-05-13T11:43:34.510Z,100.00
2023-05-13T11:46:37.670Z,100.00
2023-05-13T11:49:47.615Z,100.00
2023-05-13T11:52:55.787Z,100.00
2023-05-13T11:56:10.658Z,100.00
2023-05-13T11:59:14.843Z,100.00
2023-05-13T12:02:21.211Z,100.00
2023-05-13T12:05:25.246Z,99.35
2023-05-13T12:08:28.078Z,99.63
2023-05-13T12:11:30.927Z,98.64
2023-05-13T12:14:33.976Z,96.40
2023-05-13T12:17:37.630Z,97.43
2023-05-13T12:20:40.053Z,96.97
2023-05-13T12:23:43.988Z,97.10
2023-05-13T12:26:46.734Z,100.00
2023-05-13T12:29:49.959Z,97.02
2023-05-13T12:32:52.531Z,100.00
2023-05-13T12:36:24.704Z,99.18
2023-05-13T12:39:28.514Z,97.55
2023-05-13T12:42:31.381Z,98.15
2023-05-13T12:45:33.957Z,98.20
2023-05-13T12:48:37.383Z,97.18
2023-05-13T12:51:40.046Z,97.38
2023-05-13T12:54:42.834Z,98.35
2023-05-13T12:58:04.315Z,96.68
2023-05-13T13:01:07.155Z,96.93
2023-05-13T13:04:10.011Z,97.26
2023-05-13T13:07:14.725Z,96.75
2023-05-13T13:10:17.769Z,94.39
2023-05-13T13:13:20.730Z,94.07
2023-05-13T13:16:23.757Z,94.40
2023-05-13T13:19:26.919Z,95.17
2023-05-13T13:22:31.621Z,94.76
2023-05-13T13:25:34.351Z,95.69
2023-05-13T13:28:36.821Z,94.80
2023-05-13T13:31:39.716Z,96.85
2023-05-13T13:34:42.296Z,94.72
2023-05-13T13:37:47.473Z,95.07
2023-05-13T13:40:49.925Z,95.67
2023-05-13T13:43:52.696Z,95.38
2023-05-13T13:46:55.292Z,94.36
2023-05-13T13:49:58.199Z,93.10
2023-05-13T13:53:00.884Z,94.10
2023-05-13T13:56:03.740Z,94.83
2023-05-13T13:59:06.324Z,95.21
2023-05-13T14:02:09.528Z,94.84
2023-05-13T14:05:13.098Z,94.14
2023-05-13T14:08:15.666Z,94.65
2023-05-13T14:11:18.448Z,94.03
2023-05-13T14:14:20.920Z,93.66
2023-05-13T14:17:24.414Z,94.45
2023-05-13T14:20:29.101Z,96.77
2023-05-13T14:23:32.030Z,95.02
2023-05-13T14:26:34.663Z,94.14
2023-05-13T14:29:37.699Z,93.69
2023-05-13T14:32:45.124Z,95.12
2023-05-13T14:35:47.975Z,95.58
2023-05-13T14:38:50.469Z,95.47
2023-05-13T14:41:53.265Z,95.75
2023-05-13T14:44:55.710Z,96.16
2023-05-13T14:47:58.642Z,96.26
2023-05-13T14:51:01.176Z,96.23
2023-05-13T14:54:04.609Z,96.10
2023-05-13T14:57:08.303Z,97.02
2023-05-13T15:00:11.819Z,97.67
2023-05-13T15:03:17.506Z,99.04
2023-05-13T15:06:20.461Z,97.51
2023-05-13T15:09:23.011Z,97.57
2023-05-13T15:12:28.858Z,98.22
2023-05-13T15:15:33.340Z,99.06
2023-05-13T15:18:36.176Z,98.09
2023-05-13T15:21:38.699Z,98.30
2023-05-13T15:24:42.062Z,97.88
2023-05-13T15:27:44.838Z,97.30
2023-05-13T15:30:47.745Z,97.87
2023-05-13T15:33:50.280Z,97.17
2023-05-13T15:36:53.118Z,97.81
2023-05-13T15:39:55.706Z,99.12
2023-05-13T15:42:58.459Z,96.81
2023-05-13T15:46:01.498Z,97.40
2023-05-13T15:49:04.298Z,98.49
2023-05-13T15:52:07.339Z,97.96
2023-05-13T15:55:10.134Z,97.44
2023-05-13T15:58:12.682Z,99.33
2023-05-13T16:01:15.413Z,97.53
2023-05-13T16:04:18.338Z,97.72
2023-05-13T16:07:20.961Z,96.70
2023-05-13T16:10:24.015Z,95.75
2023-05-13T16:13:26.757Z,96.20
2023-05-13T16:16:29.596Z,96.36
2023-05-13T16:19:32.123Z,97.13
2023-05-13T16:22:38.200Z,97.31
2023-05-13T16:25:42.566Z,96.54
2023-05-13T16:28:45.365Z,97.00
2023-05-13T16:31:47.871Z,96.72
2023-05-13T16:34:51.916Z,96.67
2023-05-13T16:37:54.416Z,95.23
2023-05-13T16:40:57.633Z,96.10
2023-05-13T16:44:00.109Z,96.57
2023-05-13T16:47:03.357Z,96.32
2023-05-13T16:50:08.479Z,97.72
2023-05-13T16:53:11.281Z,97.03
2023-05-13T16:56:13.719Z,97.59
2023-05-13T16:59:27.564Z,98.74
2023-05-13T17:02:30.319Z,99.42
2023-05-13T17:05:35.503Z,100.00
2023-05-13T17:08:37.984Z,100.00
2023-05-13T17:11:41.124Z,100.00
2023-05-13T17:14:43.715Z,100.00
2023-05-13T17:17:46.527Z,100.00
2023-05-13T17:20:49.327Z,100.00
2023-05-13T17:23:52.134Z,100.00
2023-05-13T17:26:54.838Z,99.32
2023-05-13T17:29:57.672Z,99.48
2023-05-13T17:33:00.160Z,100.00
2023-05-13T17:36:03.236Z,100.00
2023-05-13T17:39:05.806Z,100.00
2023-05-13T17:42:08.584Z,100.00
2023-05-13T17:45:11.311Z,100.00
2023-05-13T17:48:14.257Z,100.00
2023-05-13T17:51:16.933Z,100.00
2023-05-13T17:54:19.718Z,100.00
2023-05-13T17:57:22.189Z,100.00
2023-05-13T18:00:26.133Z,100.00
2023-05-13T18:03:29.241Z,100.00
2023-05-13T18:06:31.819Z,100.00
2023-05-13T18:09:34.630Z,100.00
2023-05-13T18:12:37.257Z,100.00
2023-05-13T18:15:40.208Z,100.00
2023-05-13T18:18:42.699Z,100.00
2023-05-13T18:21:46.640Z,100.00
2023-05-13T18:24:49.263Z,100.00
2023-05-13T18:27:55.286Z,100.00
2023-05-13T18:30:57.793Z,100.00
2023-05-13T18:34:01.553Z,100.00
2023-05-13T18:37:04.707Z,100.00
2023-05-13T18:40:08.745Z,100.00
2023-05-13T18:43:11.248Z,100.00
2023-05-13T18:46:14.115Z,100.00
2023-05-13T18:49:16.581Z,100.00
2023-05-13T18:52:19.285Z,100.00
2023-05-13T18:55:21.749Z,100.00
2023-05-13T18:58:26.806Z,100.00
2023-05-13T19:01:33.191Z,100.00
2023-05-13T19:04:38.311Z,100.00
2023-05-13T19:07:40.811Z,100.00
2023-05-13T19:10:43.872Z,100.00
2023-05-13T19:13:47.692Z,100.00
2023-05-13T19:16:51.262Z,100.00
2023-05-13T19:19:53.844Z,100.00
2023-05-13T19:22:57.236Z,100.00
2023-05-13T19:26:00.060Z,100.00
2023-05-13T19:29:03.526Z,100.00
2023-05-13T19:32:07.877Z,100.00
2023-05-13T19:35:11.396Z,100.00
2023-05-13T19:38:13.961Z,100.00
2023-05-13T19:41:16.774Z,100.00
2023-05-13T19:44:19.268Z,100.00
2023-05-13T19:47:22.206Z,100.00
2023-05-13T19:50:25.170Z,100.00
2023-05-13T19:53:28.249Z,100.00
2023-05-13T19:56:30.894Z,100.00
2023-05-13T19:59:33.709Z,100.00
2023-05-13T20:02:36.525Z,100.00
2023-05-13T20:05:42.416Z,100.00
2023-05-13T20:08:44.986Z,100.00
2023-05-13T20:11:47.799Z,100.00
2023-05-13T20:14:51.939Z,100.00
2023-05-13T20:17:54.940Z,100.00
2023-05-13T20:20:57.596Z,100.00
2023-05-13T20:24:00.841Z,100.00
2023-05-13T20:27:03.886Z,100.00
2023-05-13T20:30:07.567Z,100.00
2023-05-13T20:33:10.683Z,100.00
2023-05-13T20:36:13.652Z,100.00
2023-05-13T20:39:16.818Z,100.00
2023-05-13T20:42:22.540Z,100.00
2023-05-13T20:45:25.748Z,100.00
2023-05-13T20:48:31.914Z,100.00
2023-05-13T20:51:35.152Z,100.00
2023-05-13T20:54:38.626Z,100.00
2023-05-13T20:57:45.463Z,100.00
2023-05-13T21:00:48.273Z,100.00
2023-05-13T21:03:50.877Z,100.00
2023-05-13T21:06:53.889Z,100.00
2023-05-13T21:09:56.459Z,100.00
2023-05-13T21:12:59.349Z,100.00
2023-05-13T21:16:05.191Z,100.00
2023-05-13T21:19:08.440Z,100.00
2023-05-13T21:22:11.056Z,100.00
2023-05-13T21:25:13.922Z,100.00
2023-05-13T21:28:18.389Z,100.00
2023-05-13T21:31:21.324Z,100.00
2023-05-13T21:34:24.228Z,100.00
2023-05-13T21:37:26.933Z,100.00
2023-05-13T21:40:29.579Z,100.00
2023-05-13T21:43:33.646Z,100.00
2023-05-13T21:46:36.153Z,100.00
2023-05-13T21:49:39.060Z,100.00
2023-05-13T21:52:41.674Z,100.00
2023-05-13T21:55:48.179Z,100.00
2023-05-13T21:58:54.160Z,100.00
2023-05-13T22:01:57.287Z,100.00
2023-05-13T22:05:00.156Z,100.00
2023-05-13T22:08:03.011Z,100.00
2023-05-13T22:11:07.292Z,100.00
2023-05-13T22:14:10.911Z,100.00
2023-05-13T22:17:13.867Z,100.00
2023-05-13T22:20:16.416Z,100.00
2023-05-13T22:23:19.314Z,100.00
2023-05-13T22:26:22.304Z,100.00
2023-05-13T22:29:25.339Z,100.00
2023-05-13T22:32:27.880Z,100.00
2023-05-13T22:35:32.019Z,100.00
2023-05-13T22:38:34.532Z,100.00
2023-05-13T22:41:37.367Z,100.00
2023-05-13T22:44:39.940Z,100.00
2023-05-13T22:47:42.708Z,100.00
2023-05-13T22:50:45.440Z,100.00
2023-05-13T22:53:48.186Z,100.00
2023-05-13T22:56:51.142Z,100.00
2023-05-13T22:59:53.918Z,100.00
2023-05-13T23:02:57.494Z,100.00
2023-05-13T23:06:00.441Z,100.00
2023-05-13T23:09:02.938Z,100.00
2023-05-13T23:12:06.324Z,100.00
2023-05-13T23:15:11.603Z,100.00
2023-05-13T23:18:14.452Z,100.00
2023-05-13T23:21:16.888Z,100.00
2023-05-13T23:24:19.855Z,100.00
2023-05-13T23:27:22.398Z,100.00
2023-05-13T23:30:25.290Z,100.00
2023-05-13T23:33:28.031Z,100.00
2023-05-13T23:36:31.079Z,100.00
2023-05-13T23:39:33.469Z,100.00
2023-05-13T23:42:36.427Z,100.00
2023-05-13T23:45:38.870Z,100.00
2023-05-13T23:48:41.679Z,100.00
2023-05-13T23:51:44.215Z,100.00
2023-05-13T23:54:46.967Z,100.00
2023-05-13T23:57:50.744Z,100.00
